Time;durP1;ratioP1;P1;durP2;ratioP2;P2;SDS_P1;SDS_P2;PMS_P1;PMS_P2;Temp;Humidity;BMP_temperature;BMP_pressure;BME280_temperature;BME280_humidity;BME280_pressure;Samples;Min_cycle;Max_cycle;Signal;HPM_P1;HPM_P2
2022/10/17 00:01:49;;;;;;;15.10;4.88;;;;;;;;;;5102384;27;20051;-76
2022/10/17 00:04:15;;;;;;;11.93;6.07;;;;;;;;;;5135345;27;20027;-76
2022/10/17 00:06:41;;;;;;;16.83;5.97;;;;;;;;;;5116803;27;20440;-76
2022/10/17 00:09:08;;;;;;;14.25;5.60;;;;;;;;;;5135206;27;20075;-76
2022/10/17 00:11:35;;;;;;;14.18;5.35;;;;;;;;;;5135064;27;20039;-76
2022/10/17 00:14:01;;;;;;;18.38;6.00;;;;;;;;;;5125134;27;20079;-76
2022/10/17 00:16:28;;;;;;;14.20;5.82;;;;;;;;;;5111694;27;20488;-66
2022/10/17 00:18:54;;;;;;;10.73;5.40;;;;;;;;;;5115970;27;20039;-66
2022/10/17 00:21:21;;;;;;;17.20;6.00;;;;;;;;;;5134964;27;20535;-67
2022/10/17 00:23:47;;;;;;;14.27;5.93;;;;;;;;;;5109873;28;20066;-66
2022/10/17 00:26:14;;;;;;;12.40;6.00;;;;;;;;;;5126432;27;20051;-67
2022/10/17 00:28:40;;;;;;;20.63;6.00;;;;;;;;;;5134657;27;20035;-67
2022/10/17 00:31:07;;;;;;;16.88;5.97;;;;;;;;;;5134213;27;20084;-66
2022/10/17 00:33:34;;;;;;;14.45;6.05;;;;;;;;;;5120020;27;20100;-67
2022/10/17 00:36:08;;;;;;;13.77;6.13;;;;;;;;;;5133993;27;20507;-67
2022/10/17 00:38:34;;;;;;;13.57;5.90;;;;;;;;;;5120754;27;20031;-76
2022/10/17 00:41:01;;;;;;;14.15;6.28;;;;;;;;;;5134362;27;20035;-76
2022/10/17 00:43:28;;;;;;;16.73;6.28;;;;;;;;;;5115843;27;20057;-67
2022/10/17 00:45:54;;;;;;;13.13;6.10;;;;;;;;;;5133895;27;20047;-67
2022/10/17 00:48:21;;;;;;;10.88;5.20;;;;;;;;;;5078468;28;20081;-66
2022/10/17 00:50:48;;;;;;;15.23;6.78;;;;;;;;;;5127169;27;20027;-67
2022/10/17 00:53:15;;;;;;;16.48;6.18;;;;;;;;;;5134093;27;20463;-66
2022/10/17 00:55:48;;;;;;;13.55;6.55;;;;;;;;;;5115757;27;20385;-66
2022/10/17 00:58:14;;;;;;;15.75;5.90;;;;;;;;;;5134041;27;20035;-67
2022/10/17 01:00:42;;;;;;;17.15;7.07;;;;;;;;;;5134273;27;20039;-66
2022/10/17 01:03:08;;;;;;;12.13;6.60;;;;;;;;;;5133403;27;20038;-67
2022/10/17 01:05:34;;;;;;;12.05;6.90;;;;;;;;;;5134233;27;20042;-67
2022/10/17 01:08:00;;;;;;;12.77;6.75;;;;;;;;;;5133303;27;20365;-67
2022/10/17 01:10:34;;;;;;;14.70;7.07;;;;;;;;;;5133672;27;20035;-67
2022/10/17 01:13:00;;;;;;;14.23;7.03;;;;;;;;;;5115074;27;20046;-66
2022/10/17 01:15:44;;;;;;;15.98;7.20;;;;;;;;;;5133617;27;20073;-66
2022/10/17 01:18:11;;;;;;;14.60;7.47;;;;;;;;;;5132200;27;20047;-67
2022/10/17 01:20:43;;;;;;;12.93;7.25;;;;;;;;;;5121020;27;20498;-67
2022/10/17 01:23:24;;;;;;;11.77;7.47;;;;;;;;;;5114967;27;20480;-67
2022/10/17 01:26:05;;;;;;;11.57;7.40;;;;;;;;;;5133633;27;20488;-67
2022/10/17 01:28:45;;;;;;;13.90;7.30;;;;;;;;;;5115085;27;20034;-67
2022/10/17 01:31:15;;;;;;;15.38;8.00;;;;;;;;;;5133399;27;20035;-67
2022/10/17 01:33:50;;;;;;;16.48;8.00;;;;;;;;;;5133241;27;20039;-76
2022/10/17 01:36:35;;;;;;;11.55;7.90;;;;;;;;;;5114560;27;20050;-66
2022/10/17 01:39:07;;;;;;;13.10;7.93;;;;;;;;;;5114711;27;20042;-67
2022/10/17 01:41:56;;;;;;;14.52;8.50;;;;;;;;;;5133564;27;20035;-67
2022/10/17 01:44:28;;;;;;;13.20;8.27;;;;;;;;;;5098523;28;20043;-67
2022/10/17 01:46:57;;;;;;;14.48;7.95;;;;;;;;;;5132665;27;20122;-67
2022/10/17 01:49:25;;;;;;;17.98;8.85;;;;;;;;;;5133403;27;20042;-67
2022/10/17 01:51:54;;;;;;;15.05;9.20;;;;;;;;;;5114716;28;20068;-67
2022/10/17 01:54:20;;;;;;;19.88;9.90;;;;;;;;;;5132657;27;20047;-67
2022/10/17 01:56:47;;;;;;;12.18;8.50;;;;;;;;;;5132767;27;20078;-66
2022/10/17 01:59:16;;;;;;;17.08;9.20;;;;;;;;;;5132959;28;20043;-66
2022/10/17 02:01:43;;;;;;;13.80;9.32;;;;;;;;;;5116079;27;20395;-76
2022/10/17 02:04:10;;;;;;;15.27;9.60;;;;;;;;;;5139768;27;20034;-77
2022/10/17 02:06:37;;;;;;;16.83;9.48;;;;;;;;;;5120815;27;20046;-76
2022/10/17 02:09:35;;;;;;;15.82;9.95;;;;;;;;;;5139614;27;20042;-77
2022/10/17 02:12:01;;;;;;;15.18;9.20;;;;;;;;;;5076088;27;20197;-76
2022/10/17 02:14:35;;;;;;;15.75;9.65;;;;;;;;;;5140078;27;20054;-67
2022/10/17 02:17:19;;;;;;;16.63;10.18;;;;;;;;;;5139566;27;20395;-67
2022/10/17 02:20:03;;;;;;;14.68;10.02;;;;;;;;;;5139827;27;20043;-66
2022/10/17 02:22:32;;;;;;;17.83;10.85;;;;;;;;;;5139776;27;20039;-67
2022/10/17 02:25:01;;;;;;;17.08;10.35;;;;;;;;;;5104157;27;20049;-67
2022/10/17 02:27:44;;;;;;;16.65;10.73;;;;;;;;;;5139614;27;20038;-68
2022/10/17 02:30:29;;;;;;;17.77;10.88;;;;;;;;;;5130449;27;20038;-67
2022/10/17 02:32:59;;;;;;;15.75;11.63;;;;;;;;;;5107089;27;20046;-76
2022/10/17 02:35:27;;;;;;;17.88;10.98;;;;;;;;;;5109522;28;20039;-77
2022/10/17 02:37:53;;;;;;;19.02;11.50;;;;;;;;;;5103360;27;20039;-76
2022/10/17 02:40:21;;;;;;;17.77;12.05;;;;;;;;;;5100214;28;20069;-77
2022/10/17 02:42:48;;;;;;;23.98;12.23;;;;;;;;;;5131197;27;20110;-76
2022/10/17 02:45:14;;;;;;;23.40;12.00;;;;;;;;;;5139543;27;20113;-77
2022/10/17 02:47:58;;;;;;;22.55;13.35;;;;;;;;;;5121469;27;20504;-76
2022/10/17 02:50:31;;;;;;;19.20;12.75;;;;;;;;;;5139570;27;20043;-76
2022/10/17 02:53:00;;;;;;;21.98;12.82;;;;;;;;;;5121166;27;20122;-77
2022/10/17 02:55:38;;;;;;;17.17;13.05;;;;;;;;;;5138981;27;20120;-76
2022/10/17 02:58:07;;;;;;;20.15;13.55;;;;;;;;;;5124701;27;20399;-76
2022/10/17 03:00:34;;;;;;;19.38;13.32;;;;;;;;;;5139797;27;20114;-67
2022/10/17 03:03:00;;;;;;;21.20;13.60;;;;;;;;;;5139533;27;20035;-68
2022/10/17 03:05:28;;;;;;;21.45;14.30;;;;;;;;;;5120790;27;20027;-68
2022/10/17 03:07:55;;;;;;;19.83;14.35;;;;;;;;;;5139581;27;20066;-67
2022/10/17 03:10:21;;;;;;;23.70;14.43;;;;;;;;;;5120596;27;20042;-68
2022/10/17 03:12:48;;;;;;;23.48;14.38;;;;;;;;;;5101250;27;20043;-76
2022/10/17 03:15:14;;;;;;;19.05;14.20;;;;;;;;;;5135928;27;20034;-76
2022/10/17 03:17:40;;;;;;;22.35;14.98;;;;;;;;;;5136055;27;20365;-77
2022/10/17 03:20:06;;;;;;;20.73;14.60;;;;;;;;;;5136129;27;20114;-77
2022/10/17 03:22:33;;;;;;;22.23;14.65;;;;;;;;;;5136110;27;20499;-76
2022/10/17 03:24:59;;;;;;;22.63;15.50;;;;;;;;;;5116365;27;20038;-77
2022/10/17 03:27:25;;;;;;;24.77;15.85;;;;;;;;;;5122339;27;20066;-77
2022/10/17 03:29:51;;;;;;;21.55;15.52;;;;;;;;;;5136117;27;20058;-77
2022/10/17 03:32:17;;;;;;;21.33;15.02;;;;;;;;;;5117107;27;20122;-77
2022/10/17 03:34:44;;;;;;;23.55;16.52;;;;;;;;;;5089036;28;20054;-77
2022/10/17 03:37:10;;;;;;;24.52;16.10;;;;;;;;;;5114010;27;20123;-77
2022/10/17 03:39:36;;;;;;;23.17;15.85;;;;;;;;;;5135620;27;20039;-67
2022/10/17 03:42:02;;;;;;;26.95;15.95;;;;;;;;;;5134225;27;20046;-67
2022/10/17 03:44:28;;;;;;;23.83;16.02;;;;;;;;;;5103018;27;20388;-66
2022/10/17 03:46:54;;;;;;;24.55;16.30;;;;;;;;;;5135724;27;20048;-66
2022/10/17 03:49:20;;;;;;;26.35;16.58;;;;;;;;;;5134853;27;20103;-67
2022/10/17 03:51:46;;;;;;;24.13;16.15;;;;;;;;;;5135324;27;20575;-66
2022/10/17 03:54:12;;;;;;;29.02;16.58;;;;;;;;;;5132545;27;20042;-67
2022/10/17 03:56:38;;;;;;;24.00;16.80;;;;;;;;;;5104686;27;20051;-67
2022/10/17 03:59:04;;;;;;;22.05;15.95;;;;;;;;;;5117129;27;20114;-67
2022/10/17 04:01:30;;;;;;;21.67;16.40;;;;;;;;;;5134490;27;20442;-66
2022/10/17 04:03:57;;;;;;;23.35;16.52;;;;;;;;;;5116566;27;20063;-66
2022/10/17 04:06:23;;;;;;;23.95;16.35;;;;;;;;;;5115812;27;20365;-66
2022/10/17 04:08:49;;;;;;;23.63;16.60;;;;;;;;;;5135299;27;20544;-66
2022/10/17 04:11:17;;;;;;;24.17;15.95;;;;;;;;;;5134296;27;20099;-68
2022/10/17 04:13:44;;;;;;;22.45;16.15;;;;;;;;;;5135201;27;20035;-66
2022/10/17 04:16:11;;;;;;;25.27;16.77;;;;;;;;;;5116700;27;20039;-66
2022/10/17 04:18:37;;;;;;;30.02;16.58;;;;;;;;;;5116283;27;20392;-66
2022/10/17 04:21:04;;;;;;;23.10;16.55;;;;;;;;;;5135143;27;20114;-68
2022/10/17 04:23:30;;;;;;;26.90;17.33;;;;;;;;;;5133975;27;20035;-66
2022/10/17 04:25:57;;;;;;;22.58;17.08;;;;;;;;;;5134805;27;20038;-77
2022/10/17 04:28:23;;;;;;;28.10;17.17;;;;;;;;;;5111953;28;20046;-77
2022/10/17 04:30:55;;;;;;;27.13;17.10;;;;;;;;;;5124411;27;20483;-76
2022/10/17 04:33:21;;;;;;;24.80;16.90;;;;;;;;;;5116280;27;20886;-76
2022/10/17 04:35:54;;;;;;;26.70;17.10;;;;;;;;;;5134937;27;20035;-76
2022/10/17 04:38:21;;;;;;;24.45;16.40;;;;;;;;;;5134410;27;20558;-76
2022/10/17 04:40:47;;;;;;;24.23;15.98;;;;;;;;;;5108428;28;20105;-76
2022/10/17 04:43:13;;;;;;;21.85;15.75;;;;;;;;;;5117782;27;20036;-76
2022/10/17 04:45:39;;;;;;;20.75;15.30;;;;;;;;;;5130084;27;20042;-67
2022/10/17 04:48:05;;;;;;;24.63;16.25;;;;;;;;;;5116272;27;20122;-76
2022/10/17 04:50:31;;;;;;;27.13;17.05;;;;;;;;;;5115841;27;20039;-76
2022/10/17 04:52:57;;;;;;;22.17;16.73;;;;;;;;;;5116523;27;20046;-76
2022/10/17 04:55:23;;;;;;;22.15;16.17;;;;;;;;;;5133779;27;20143;-76
2022/10/17 04:57:49;;;;;;;26.48;16.70;;;;;;;;;;5134151;27;20123;-76
2022/10/17 05:00:15;;;;;;;23.00;15.95;;;;;;;;;;5134376;27;20043;-76
2022/10/17 05:02:41;;;;;;;25.42;15.90;;;;;;;;;;5133526;27;20043;-76
2022/10/17 05:05:07;;;;;;;24.30;16.67;;;;;;;;;;5134316;27;20039;-76
2022/10/17 05:07:33;;;;;;;24.65;16.73;;;;;;;;;;5115148;27;20146;-76
2022/10/17 05:09:59;;;;;;;23.05;16.67;;;;;;;;;;5115760;27;20096;-77
2022/10/17 05:12:26;;;;;;;25.92;17.02;;;;;;;;;;5114993;27;20065;-76
2022/10/17 05:14:52;;;;;;;26.60;16.42;;;;;;;;;;5133705;27;20039;-77
2022/10/17 05:17:18;;;;;;;24.38;16.83;;;;;;;;;;5133991;27;20035;-77
2022/10/17 05:19:44;;;;;;;24.30;16.30;;;;;;;;;;5133616;27;20035;-76
2022/10/17 05:22:10;;;;;;;25.73;17.17;;;;;;;;;;5133944;27;20031;-76
2022/10/17 05:24:36;;;;;;;22.42;15.93;;;;;;;;;;5097372;27;20168;-76
2022/10/17 05:27:02;;;;;;;27.77;16.77;;;;;;;;;;5119998;27;20043;-76
2022/10/17 05:29:28;;;;;;;29.13;16.25;;;;;;;;;;5133414;27;20391;-76
2022/10/17 05:31:54;;;;;;;28.13;17.13;;;;;;;;;;5133762;27;20164;-76
2022/10/17 05:34:20;;;;;;;25.75;17.15;;;;;;;;;;5098290;27;20088;-77
2022/10/17 05:36:46;;;;;;;25.08;16.17;;;;;;;;;;5132672;27;20043;-76
2022/10/17 05:39:14;;;;;;;23.52;16.23;;;;;;;;;;5115108;27;20043;-76
2022/10/17 05:41:40;;;;;;;26.90;16.35;;;;;;;;;;5114870;27;20096;-66
2022/10/17 05:44:06;;;;;;;21.80;15.65;;;;;;;;;;5133068;27;20057;-66
2022/10/17 05:46:32;;;;;;;22.52;15.57;;;;;;;;;;5123241;27;20040;-67
2022/10/17 05:48:58;;;;;;;24.77;16.13;;;;;;;;;;5128358;27;20039;-66
2022/10/17 05:51:24;;;;;;;23.67;15.75;;;;;;;;;;5133642;27;20035;-66
2022/10/17 05:53:50;;;;;;;24.05;15.63;;;;;;;;;;5133493;27;20045;-76
2022/10/17 05:56:19;;;;;;;25.25;15.45;;;;;;;;;;5111504;28;20100;-76
2022/10/17 05:58:46;;;;;;;24.13;15.40;;;;;;;;;;5100475;28;20040;-74
2022/10/17 06:01:12;;;;;;;22.40;14.93;;;;;;;;;;5111153;28;20039;-77
2022/10/17 06:03:39;;;;;;;24.90;14.90;;;;;;;;;;5113706;28;20059;-76
2022/10/17 06:06:07;;;;;;;25.30;15.90;;;;;;;;;;5113876;28;20044;-76
2022/10/17 06:08:33;;;;;;;21.13;14.10;;;;;;;;;;5113185;28;20092;-76
2022/10/17 06:10:59;;;;;;;23.77;14.70;;;;;;;;;;5113344;28;20038;-76
2022/10/17 06:13:25;;;;;;;19.80;13.90;;;;;;;;;;5095504;28;20036;-76
2022/10/17 06:15:51;;;;;;;23.17;14.32;;;;;;;;;;5113459;28;20472;-66
2022/10/17 06:18:17;;;;;;;21.27;14.00;;;;;;;;;;5110913;28;20039;-67
2022/10/17 06:20:43;;;;;;;19.75;13.35;;;;;;;;;;5094297;28;20134;-66
2022/10/17 06:23:09;;;;;;;22.00;13.95;;;;;;;;;;5112235;28;20058;-67
2022/10/17 06:25:35;;;;;;;17.45;12.68;;;;;;;;;;5110769;28;20043;-66
2022/10/17 06:28:01;;;;;;;18.00;12.85;;;;;;;;;;5112853;28;20046;-76
2022/10/17 06:30:28;;;;;;;19.23;12.57;;;;;;;;;;5104394;28;20050;-77
2022/10/17 06:32:54;;;;;;;19.75;13.63;;;;;;;;;;5104063;28;20122;-76
2022/10/17 06:35:20;;;;;;;18.63;12.52;;;;;;;;;;5113003;28;20373;-76
2022/10/17 06:37:46;;;;;;;17.73;12.43;;;;;;;;;;5112360;28;20036;-76
2022/10/17 06:40:14;;;;;;;17.55;12.65;;;;;;;;;;5111391;28;20055;-75
2022/10/17 06:42:40;;;;;;;21.65;12.23;;;;;;;;;;5110976;28;20049;-76
2022/10/17 06:45:07;;;;;;;16.52;11.77;;;;;;;;;;5094088;28;20044;-76
2022/10/17 06:47:33;;;;;;;19.33;12.70;;;;;;;;;;5111177;28;20039;-76
2022/10/17 06:49:59;;;;;;;19.77;12.13;;;;;;;;;;5094587;28;20093;-76
2022/10/17 06:52:25;;;;;;;18.30;12.27;;;;;;;;;;5110561;28;20044;-66
2022/10/17 06:54:51;;;;;;;19.75;12.07;;;;;;;;;;5116856;27;20042;-66
2022/10/17 06:57:17;;;;;;;18.13;11.52;;;;;;;;;;5118069;27;20051;-67
2022/10/17 06:59:44;;;;;;;19.13;11.60;;;;;;;;;;5117507;27;20039;-67
2022/10/17 07:02:10;;;;;;;17.20;12.18;;;;;;;;;;5136417;27;20096;-66
2022/10/17 07:04:36;;;;;;;19.23;11.52;;;;;;;;;;5135696;27;20114;-67
2022/10/17 07:07:02;;;;;;;18.30;11.65;;;;;;;;;;5101021;27;20488;-66
2022/10/17 07:09:29;;;;;;;17.17;11.00;;;;;;;;;;5117837;27;20476;-67
2022/10/17 07:11:55;;;;;;;15.52;10.85;;;;;;;;;;5136031;27;20108;-67
2022/10/17 07:14:21;;;;;;;16.98;11.65;;;;;;;;;;5117594;27;20050;-66
2022/10/17 07:16:47;;;;;;;16.58;11.82;;;;;;;;;;5116968;27;20050;-67
2022/10/17 07:19:13;;;;;;;16.98;11.43;;;;;;;;;;5136112;27;20421;-66
2022/10/17 07:21:39;;;;;;;16.48;11.57;;;;;;;;;;5135700;27;20039;-66
2022/10/17 07:24:06;;;;;;;17.20;11.07;;;;;;;;;;5136068;27;20061;-66
2022/10/17 07:26:32;;;;;;;17.10;10.82;;;;;;;;;;5136026;27;20043;-66
2022/10/17 07:28:58;;;;;;;15.90;10.35;;;;;;;;;;5135560;27;20484;-68
2022/10/17 07:31:24;;;;;;;21.17;10.55;;;;;;;;;;5135882;27;20503;-67
2022/10/17 07:33:51;;;;;;;15.90;10.77;;;;;;;;;;5135561;27;20166;-66
2022/10/17 07:36:17;;;;;;;14.25;10.50;;;;;;;;;;5103956;28;20044;-66
2022/10/17 07:38:43;;;;;;;14.02;10.40;;;;;;;;;;5134202;27;20035;-66
2022/10/17 07:41:10;;;;;;;16.27;10.77;;;;;;;;;;5117436;27;20039;-67
2022/10/17 07:43:37;;;;;;;14.20;9.60;;;;;;;;;;5117126;27;20091;-66
2022/10/17 07:46:04;;;;;;;18.15;10.20;;;;;;;;;;5135109;27;20039;-67
2022/10/17 07:48:30;;;;;;;14.02;9.88;;;;;;;;;;5135816;27;20031;-66
2022/10/17 07:50:57;;;;;;;12.85;9.20;;;;;;;;;;5135087;27;20043;-66
2022/10/17 07:53:23;;;;;;;12.55;9.35;;;;;;;;;;5135716;27;20042;-67
2022/10/17 07:55:50;;;;;;;13.18;9.82;;;;;;;;;;5134707;27;20097;-66
2022/10/17 07:58:16;;;;;;;13.60;9.10;;;;;;;;;;5116257;27;20040;-66
2022/10/17 08:00:42;;;;;;;16.65;9.23;;;;;;;;;;5135019;27;20035;-76
2022/10/17 08:03:09;;;;;;;13.15;9.02;;;;;;;;;;5115180;28;20388;-77
2022/10/17 08:05:36;;;;;;;14.15;9.05;;;;;;;;;;5127521;27;20035;-77
2022/10/17 08:08:02;;;;;;;15.75;9.30;;;;;;;;;;5134658;27;20050;-76
2022/10/17 08:10:28;;;;;;;12.25;9.43;;;;;;;;;;5135216;27;20031;-76
2022/10/17 08:12:55;;;;;;;13.32;9.75;;;;;;;;;;5102203;27;20040;-76
2022/10/17 08:15:22;;;;;;;12.48;9.02;;;;;;;;;;5135356;27;20031;-76
2022/10/17 08:17:48;;;;;;;13.00;9.70;;;;;;;;;;5116351;27;20088;-77
2022/10/17 08:20:14;;;;;;;11.98;9.05;;;;;;;;;;5128302;27;20032;-76
2022/10/17 08:22:40;;;;;;;13.15;8.98;;;;;;;;;;5109440;27;20035;-77
2022/10/17 08:25:07;;;;;;;12.88;9.95;;;;;;;;;;5116274;27;20046;-77
2022/10/17 08:27:33;;;;;;;14.90;9.90;;;;;;;;;;5099295;27;20043;-76
2022/10/17 08:30:00;;;;;;;15.98;9.80;;;;;;;;;;5134597;27;20398;-77
2022/10/17 08:32:26;;;;;;;14.20;9.95;;;;;;;;;;5134988;27;20544;-77
2022/10/17 08:34:54;;;;;;;12.70;9.35;;;;;;;;;;5134365;27;20067;-76
2022/10/17 08:37:20;;;;;;;14.18;9.93;;;;;;;;;;5116155;27;20043;-76
2022/10/17 08:39:46;;;;;;;15.25;9.32;;;;;;;;;;5134210;27;20039;-76
2022/10/17 08:42:42;;;;;;;15.98;9.85;;;;;;;;;;5134353;27;20035;-77
2022/10/17 08:45:17;;;;;;;12.07;9.20;;;;;;;;;;5094708;27;20055;-76
2022/10/17 08:47:45;;;;;;;16.52;9.25;;;;;;;;;;5134062;27;20076;-77
2022/10/17 08:50:20;;;;;;;13.65;8.98;;;;;;;;;;5134571;27;20061;-76
2022/10/17 08:52:48;;;;;;;13.23;9.65;;;;;;;;;;5134472;27;20458;-66
2022/10/17 08:55:16;;;;;;;16.45;9.25;;;;;;;;;;5133818;27;20094;-66
2022/10/17 08:57:43;;;;;;;15.48;9.65;;;;;;;;;;5115754;27;20442;-66
2022/10/17 09:00:17;;;;;;;12.88;8.63;;;;;;;;;;5133883;27;20039;-76
2022/10/17 09:02:55;;;;;;;15.95;8.80;;;;;;;;;;5134144;27;20108;-76
2022/10/17 09:05:21;;;;;;;16.40;9.32;;;;;;;;;;5134294;27;20039;-76
2022/10/17 09:07:56;;;;;;;13.23;9.77;;;;;;;;;;5115446;27;20035;-66
2022/10/17 09:10:28;;;;;;;12.90;9.00;;;;;;;;;;5133361;27;20499;-66
2022/10/17 09:13:10;;;;;;;17.42;9.50;;;;;;;;;;5133242;27;20091;-66
2022/10/17 09:15:45;;;;;;;13.80;8.82;;;;;;;;;;5133741;27;20074;-66
2022/10/17 09:18:20;;;;;;;14.25;8.98;;;;;;;;;;5114717;27;20515;-66
2022/10/17 09:20:51;;;;;;;13.53;9.87;;;;;;;;;;5133713;27;20031;-66
2022/10/17 09:23:19;;;;;;;15.73;10.57;;;;;;;;;;5129674;27;20032;-67
2022/10/17 09:25:47;;;;;;;12.80;9.77;;;;;;;;;;5105125;27;20114;-67
2022/10/17 09:28:17;;;;;;;13.65;10.02;;;;;;;;;;5133117;27;20043;-68
2022/10/17 09:30:46;;;;;;;16.23;10.10;;;;;;;;;;5133839;27;20061;-67
2022/10/17 09:33:27;;;;;;;18.23;10.20;;;;;;;;;;5133035;27;20579;-68
2022/10/17 09:35:53;;;;;;;16.67;10.88;;;;;;;;;;5123687;27;20130;-69
2022/10/17 09:38:21;;;;;;;15.93;10.35;;;;;;;;;;5128823;27;20050;-69
2022/10/17 09:41:00;;;;;;;19.27;11.15;;;;;;;;;;5113799;27;20220;-69
2022/10/17 09:43:26;;;;;;;18.85;10.95;;;;;;;;;;5115329;27;20042;-69
2022/10/17 09:45:52;;;;;;;15.98;10.73;;;;;;;;;;5137448;27;20034;-69
2022/10/17 09:48:23;;;;;;;15.38;10.38;;;;;;;;;;5130250;27;20117;-69
2022/10/17 09:50:49;;;;;;;21.35;11.75;;;;;;;;;;5100815;27;20039;-70
2022/10/17 09:53:18;;;;;;;16.83;10.23;;;;;;;;;;5107484;27;20413;-69
2022/10/17 09:55:47;;;;;;;17.65;11.23;;;;;;;;;;5132621;27;20125;-69
2022/10/17 09:58:13;;;;;;;16.33;11.63;;;;;;;;;;5116704;27;20043;-69
2022/10/17 10:00:39;;;;;;;20.75;11.52;;;;;;;;;;5108112;27;20236;-69
2022/10/17 10:03:17;;;;;;;19.27;11.82;;;;;;;;;;5132965;28;20019;-70
2022/10/17 10:05:59;;;;;;;16.33;10.75;;;;;;;;;;5119493;28;20070;-69
2022/10/17 10:08:33;;;;;;;17.88;10.88;;;;;;;;;;5100447;28;20043;-69
2022/10/17 10:11:02;;;;;;;19.63;11.20;;;;;;;;;;5139301;27;20047;-70
2022/10/17 10:13:28;;;;;;;18.83;10.18;;;;;;;;;;5114616;28;20129;-76
2022/10/17 10:16:11;;;;;;;21.55;11.48;;;;;;;;;;5132470;28;20522;-73
2022/10/17 10:18:38;;;;;;;18.50;10.48;;;;;;;;;;5114891;28;20039;-74
2022/10/17 10:21:08;;;;;;;18.58;11.07;;;;;;;;;;5132518;27;20171;-77
2022/10/17 10:23:38;;;;;;;19.33;11.05;;;;;;;;;;5150954;27;20031;-75
2022/10/17 10:26:10;;;;;;;21.95;11.10;;;;;;;;;;5136816;27;20575;-75
2022/10/17 10:28:37;;;;;;;16.40;10.80;;;;;;;;;;5117892;27;20039;-75
2022/10/17 10:31:06;;;;;;;17.55;11.02;;;;;;;;;;5118549;27;20082;-76
2022/10/17 10:33:33;;;;;;;15.98;11.20;;;;;;;;;;5118993;27;20575;-75
2022/10/17 10:36:06;;;;;;;17.35;11.10;;;;;;;;;;5127893;27;20073;-75
2022/10/17 10:38:33;;;;;;;19.48;12.10;;;;;;;;;;5099010;27;20099;-75
2022/10/17 10:41:04;;;;;;;16.80;11.25;;;;;;;;;;5134956;27;20027;-75
2022/10/17 10:43:36;;;;;;;20.60;12.02;;;;;;;;;;5133530;27;20042;-76
2022/10/17 10:46:15;;;;;;;20.05;11.20;;;;;;;;;;5119792;27;20055;-75
2022/10/17 10:48:49;;;;;;;19.67;11.80;;;;;;;;;;5116053;27;20050;-75
2022/10/17 10:51:16;;;;;;;18.45;12.48;;;;;;;;;;5119303;27;20031;-76
2022/10/17 10:53:42;;;;;;;18.95;12.50;;;;;;;;;;5116043;27;20130;-75
2022/10/17 10:56:23;;;;;;;18.98;11.63;;;;;;;;;;5119976;27;20047;-75
2022/10/17 10:58:49;;;;;;;21.27;12.93;;;;;;;;;;5131103;27;20054;-75
2022/10/17 11:01:36;;;;;;;24.15;16.55;;;;;;;;;;5119333;27;20412;-75
2022/10/17 11:04:02;;;;;;;;;;;;;;;;;;5094366;27;20554;-76
2022/10/17 11:06:31;;;;;;;21.83;14.93;;;;;;;;;;5111305;27;19961;-75
2022/10/17 11:09:09;;;;;;;23.38;13.55;;;;;;;;;;5124301;27;20032;-75
2022/10/17 11:11:39;;;;;;;20.42;12.55;;;;;;;;;;5108172;27;20086;-75
2022/10/17 11:14:23;;;;;;;21.60;13.30;;;;;;;;;;5103982;28;20039;-75
2022/10/17 11:16:55;;;;;;;19.73;12.70;;;;;;;;;;5103864;27;20035;-75
2022/10/17 11:19:27;;;;;;;21.35;12.45;;;;;;;;;;5123971;27;20093;-75
2022/10/17 11:21:54;;;;;;;18.83;12.07;;;;;;;;;;5099924;27;20122;-75
2022/10/17 11:24:24;;;;;;;19.60;12.40;;;;;;;;;;5099164;27;20035;-75
2022/10/17 11:26:57;;;;;;;20.80;12.30;;;;;;;;;;5111805;27;20438;-75
2022/10/17 11:29:27;;;;;;;18.33;12.27;;;;;;;;;;5104275;27;20556;-75
2022/10/17 11:31:55;;;;;;;19.70;12.90;;;;;;;;;;5106396;28;20047;-75
2022/10/17 11:34:25;;;;;;;18.77;12.10;;;;;;;;;;5135599;27;20031;-71
2022/10/17 11:36:54;;;;;;;19.77;12.73;;;;;;;;;;5101222;27;20123;-73
2022/10/17 11:39:23;;;;;;;17.27;11.38;;;;;;;;;;5096278;28;20102;-73
2022/10/17 11:41:54;;;;;;;15.52;11.75;;;;;;;;;;5082335;28;20043;-72
2022/10/17 11:44:32;;;;;;;16.83;11.35;;;;;;;;;;5118319;27;20036;-72
2022/10/17 11:47:04;;;;;;;16.33;10.85;;;;;;;;;;5095715;27;20491;-73
2022/10/17 11:49:42;;;;;;;18.13;11.85;;;;;;;;;;5108231;28;20497;-72
2022/10/17 11:52:26;;;;;;;18.05;11.00;;;;;;;;;;5119265;27;20082;-72
2022/10/17 11:54:59;;;;;;;19.08;11.80;;;;;;;;;;5096639;28;20049;-73
2022/10/17 11:57:25;;;;;;;14.80;9.25;;;;;;;;;;5096031;28;20138;-72
2022/10/17 11:59:51;;;;;;;14.30;9.00;;;;;;;;;;5096631;28;20062;-71
2022/10/17 12:02:43;;;;;;;11.02;8.38;;;;;;;;;;5096625;28;20446;-71
2022/10/17 12:05:18;;;;;;;12.77;8.13;;;;;;;;;;5113518;27;20456;-72
2022/10/17 12:07:51;;;;;;;12.63;7.90;;;;;;;;;;5101150;27;20087;-72
2022/10/17 12:10:17;;;;;;;10.52;7.30;;;;;;;;;;5096584;27;20046;-72
2022/10/17 12:12:43;;;;;;;10.32;7.30;;;;;;;;;;5096302;28;20137;-74
2022/10/17 12:15:12;;;;;;;10.02;6.05;;;;;;;;;;5108765;27;20035;-74
2022/10/17 12:17:40;;;;;;;11.43;5.95;;;;;;;;;;5120645;27;20096;-70
2022/10/17 12:20:24;;;;;;;7.15;5.38;;;;;;;;;;5125394;27;20066;-71
2022/10/17 12:23:05;;;;;;;6.78;4.75;;;;;;;;;;5096445;27;20047;-70
2022/10/17 12:25:33;;;;;;;10.95;5.20;;;;;;;;;;5091494;27;20047;-76
2022/10/17 12:28:09;;;;;;;7.75;4.90;;;;;;;;;;5109953;27;20036;-76
2022/10/17 12:30:36;;;;;;;7.80;5.43;;;;;;;;;;5131235;27;20046;-76
2022/10/17 12:33:02;;;;;;;9.23;5.65;;;;;;;;;;5097577;27;20044;-76
2022/10/17 12:35:29;;;;;;;10.50;6.70;;;;;;;;;;5124180;27;20087;-76
2022/10/17 12:37:55;;;;;;;10.38;6.28;;;;;;;;;;5121510;27;20111;-76
2022/10/17 12:40:36;;;;;;;9.43;6.28;;;;;;;;;;5102823;27;20054;-76
2022/10/17 12:43:22;;;;;;;14.25;6.88;;;;;;;;;;5089286;27;20043;-76
2022/10/17 12:45:55;;;;;;;11.27;6.75;;;;;;;;;;5120664;27;20399;-76
2022/10/17 12:48:34;;;;;;;11.23;6.53;;;;;;;;;;5115925;27;20387;-76
2022/10/17 12:51:02;;;;;;;8.40;5.82;;;;;;;;;;5104132;27;20054;-76
2022/10/17 12:53:39;;;;;;;9.52;5.80;;;;;;;;;;5098135;28;20122;-76
2022/10/17 12:56:06;;;;;;;10.43;6.03;;;;;;;;;;5106453;27;20050;-76
2022/10/17 12:58:33;;;;;;;10.85;6.07;;;;;;;;;;5123223;27;20532;-76
2022/10/17 13:00:59;;;;;;;9.05;5.10;;;;;;;;;;5114700;27;20487;-76
2022/10/17 13:03:26;;;;;;;11.55;5.20;;;;;;;;;;5088431;27;20039;-76
2022/10/17 13:05:54;;;;;;;10.43;4.88;;;;;;;;;;5119775;27;20087;-77
2022/10/17 13:08:25;;;;;;;8.23;4.40;;;;;;;;;;5115387;27;20031;-76
2022/10/17 13:10:52;;;;;;;8.70;4.10;;;;;;;;;;5118648;27;20172;-76
2022/10/17 13:13:20;;;;;;;8.85;4.20;;;;;;;;;;5118238;27;20042;-76
2022/10/17 13:15:50;;;;;;;7.38;3.50;;;;;;;;;;5107212;27;20039;-77
2022/10/17 13:18:18;;;;;;;6.80;3.20;;;;;;;;;;5111474;27;20035;-76
2022/10/17 13:20:53;;;;;;;7.45;3.70;;;;;;;;;;5116216;27;20568;-76
2022/10/17 13:23:28;;;;;;;6.72;3.05;;;;;;;;;;5097978;27;20038;-76
2022/10/17 13:26:06;;;;;;;6.78;3.13;;;;;;;;;;5102261;27;20483;-76
2022/10/17 13:28:32;;;;;;;6.53;3.30;;;;;;;;;;5106554;27;20060;-76
2022/10/17 13:30:58;;;;;;;6.25;3.22;;;;;;;;;;5103818;28;20445;-76
2022/10/17 13:33:30;;;;;;;7.00;3.63;;;;;;;;;;5102434;27;20062;-76
2022/10/17 13:35:56;;;;;;;6.32;3.38;;;;;;;;;;5097031;28;20043;-76
2022/10/17 13:38:27;;;;;;;5.85;4.10;;;;;;;;;;5108296;27;20046;-76
2022/10/17 13:40:53;;;;;;;5.75;2.90;;;;;;;;;;5127873;27;20039;-77
2022/10/17 13:43:22;;;;;;;5.20;2.75;;;;;;;;;;5117256;27;20064;-76
2022/10/17 13:45:49;;;;;;;5.28;3.03;;;;;;;;;;5120254;27;20080;-76
2022/10/17 13:48:26;;;;;;;7.03;2.47;;;;;;;;;;5116140;27;20122;-76
2022/10/17 13:50:57;;;;;;;6.90;3.05;;;;;;;;;;5116806;28;20082;-76
2022/10/17 13:53:42;;;;;;;5.70;2.90;;;;;;;;;;5118270;27;20506;-76
2022/10/17 13:56:19;;;;;;;5.15;2.33;;;;;;;;;;5117301;28;20108;-71
2022/10/17 13:58:59;;;;;;;6.80;3.00;;;;;;;;;;5133489;27;20127;-71
2022/10/17 14:01:26;;;;;;;4.70;2.72;;;;;;;;;;5146701;27;20058;-71
2022/10/17 14:03:52;;;;;;;4.85;2.60;;;;;;;;;;5118279;27;20491;-71
2022/10/17 14:06:20;;;;;;;6.78;2.90;;;;;;;;;;5137734;27;20031;-71
2022/10/17 14:08:54;;;;;;;6.28;2.40;;;;;;;;;;5132580;27;20494;-70
2022/10/17 14:11:30;;;;;;;6.78;2.97;;;;;;;;;;5138118;27;20034;-70
2022/10/17 14:13:56;;;;;;;;;;;;;;;;;;5125445;27;20480;-70
2022/10/17 14:16:23;;;;;;;5.32;2.83;;;;;;;;;;5133411;27;19920;-71
2022/10/17 14:18:50;;;;;;;7.68;2.70;;;;;;;;;;5123419;27;20065;-76
2022/10/17 14:21:23;;;;;;;8.68;2.88;;;;;;;;;;5112017;28;20095;-76
2022/10/17 14:23:50;;;;;;;5.78;2.50;;;;;;;;;;5102166;27;20517;-77
2022/10/17 14:26:20;;;;;;;7.93;2.80;;;;;;;;;;5128985;27;20118;-76
2022/10/17 14:28:47;;;;;;;6.45;2.47;;;;;;;;;;5094587;27;20373;-77
2022/10/17 14:31:24;;;;;;;4.85;2.45;;;;;;;;;;5114940;27;20483;-77
2022/10/17 14:33:51;;;;;;;7.05;2.72;;;;;;;;;;5116648;27;20115;-77
2022/10/17 14:36:18;;;;;;;9.57;3.10;;;;;;;;;;5123851;27;20750;-77
2022/10/17 14:38:46;;;;;;;6.55;2.60;;;;;;;;;;5096449;28;20046;-77